Time;durP1;ratioP1;P1;durP2;ratioP2;P2;SDS_P1;SDS_P2;PMS_P1;PMS_P2;Temp;Humidity;BMP_temperature;BMP_pressure;BME280_temperature;BME280_humidity;BME280_pressure;Samples;Min_cycle;Max_cycle;Signal;HPM_P1;HPM_P2
2022/06/22 00:00:28;;;;;;;8.88;7.72;;;;;;;22.23;60.88;94567.88;5107642;28;20180;-74
2022/06/22 00:02:57;;;;;;;8.30;7.60;;;;;;;22.23;60.51;94560.22;5108104;28;20587;-74
2022/06/22 00:05:29;;;;;;;9.02;8.13;;;;;;;22.25;60.57;94556.97;5106462;28;20200;-74
2022/06/22 00:07:59;;;;;;;9.38;8.43;;;;;;;22.22;61.06;94558.66;5101541;28;20211;-73
2022/06/22 00:10:31;;;;;;;8.90;7.75;;;;;;;22.19;61.32;94567.19;5101453;28;20203;-73
2022/06/22 00:13:00;;;;;;;9.23;8.38;;;;;;;22.17;61.08;94569.63;5100927;28;20196;-73
2022/06/22 00:15:33;;;;;;;9.13;8.32;;;;;;;22.18;60.62;94579.63;5101066;28;20201;-74
2022/06/22 00:18:02;;;;;;;8.95;8.02;;;;;;;22.20;60.35;94577.16;5099151;28;20507;-76
2022/06/22 00:20:32;;;;;;;10.80;8.05;;;;;;;22.24;60.27;94578.66;5099716;28;20192;-74
2022/06/22 00:23:01;;;;;;;9.23;8.35;;;;;;;22.27;59.98;94572.16;5105938;28;20210;-74
2022/06/22 00:25:35;;;;;;;9.52;8.63;;;;;;;22.30;59.77;94574.09;5107638;28;20185;-74
2022/06/22 00:28:34;;;;;;;9.73;8.90;;;;;;;22.35;59.79;94569.94;5106632;28;20223;-74
2022/06/22 00:31:15;;;;;;;9.63;8.63;;;;;;;22.39;59.50;94570.63;5104849;28;20200;-74
2022/06/22 00:34:05;;;;;;;9.00;8.20;;;;;;;22.43;59.39;94568.53;5089982;28;20215;-73
2022/06/22 00:36:36;;;;;;;9.75;8.85;;;;;;;22.45;59.55;94559.66;5104811;28;20290;-74
2022/06/22 00:39:23;;;;;;;8.70;7.85;;;;;;;22.47;59.53;94569.22;5103993;28;20199;-74
2022/06/22 00:41:53;;;;;;;12.82;9.05;;;;;;;22.49;59.34;94561.16;5103639;28;20195;-73
2022/06/22 00:44:21;;;;;;;10.70;9.68;;;;;;;22.50;59.24;94562.72;5102923;28;20266;-74
2022/06/22 00:46:59;;;;;;;9.90;8.90;;;;;;;22.52;59.32;94565.09;5103751;28;20204;-74
2022/06/22 00:49:28;;;;;;;9.63;8.75;;;;;;;22.52;59.37;94567.91;5102493;28;20192;-73
2022/06/22 00:51:59;;;;;;;9.45;8.70;;;;;;;22.51;59.51;94567.13;5102439;28;20219;-74
2022/06/22 00:54:28;;;;;;;9.43;8.50;;;;;;;22.51;59.40;94575.56;5102800;28;20631;-73
2022/06/22 00:57:01;;;;;;;9.65;8.73;;;;;;;22.51;59.84;94567.13;5102358;28;20238;-74
2022/06/22 00:59:33;;;;;;;10.02;9.13;;;;;;;22.52;59.55;94568.69;5101796;28;20192;-73
2022/06/22 01:02:03;;;;;;;9.80;8.90;;;;;;;22.52;59.54;94567.91;5102464;28;20203;-74
2022/06/22 01:04:37;;;;;;;10.05;9.13;;;;;;;22.49;60.04;94569.56;5104213;28;20188;-74
2022/06/22 01:07:16;;;;;;;9.55;8.63;;;;;;;22.49;59.92;94571.59;5105011;28;20207;-75
2022/06/22 01:09:47;;;;;;;10.20;8.25;;;;;;;22.48;59.78;94568.00;5105690;28;20234;-74
2022/06/22 01:12:26;;;;;;;9.55;8.45;;;;;;;22.49;60.04;94560.34;5106075;28;20279;-74
2022/06/22 01:15:11;;;;;;;10.23;9.35;;;;;;;22.47;60.28;94571.22;5104901;28;20222;-74
2022/06/22 01:17:45;;;;;;;9.48;8.68;;;;;;;22.46;60.37;94555.63;5103752;28;20235;-75
2022/06/22 01:20:18;;;;;;;9.93;9.00;;;;;;;22.47;60.18;94560.78;5101396;28;20257;-74
2022/06/22 01:22:58;;;;;;;9.85;8.95;;;;;;;22.47;60.30;94562.81;5104453;28;20195;-74
2022/06/22 01:25:37;;;;;;;9.98;8.65;;;;;;;22.47;60.40;94563.59;5108386;28;20215;-74
2022/06/22 01:28:06;;;;;;;9.80;8.80;;;;;;;22.46;60.10;94550.78;5107789;28;20228;-74
2022/06/22 01:30:37;;;;;;;10.30;9.30;;;;;;;22.46;60.19;94545.16;5106143;28;20177;-74
2022/06/22 01:33:07;;;;;;;12.70;9.70;;;;;;;22.46;60.39;94553.59;5101356;28;20189;-74
2022/06/22 01:35:37;;;;;;;10.15;9.15;;;;;;;22.44;60.31;94550.44;5099777;28;20204;-73
2022/06/22 01:38:12;;;;;;;10.32;9.40;;;;;;;22.43;60.67;94545.25;5099636;28;20204;-73
2022/06/22 01:40:45;;;;;;;9.57;8.88;;;;;;;22.42;60.53;94546.50;5099099;28;20204;-74
2022/06/22 01:43:20;;;;;;;10.20;9.25;;;;;;;22.40;60.53;94538.50;5100481;28;20202;-73
2022/06/22 01:45:52;;;;;;;10.40;9.00;;;;;;;22.37;60.84;94532.97;5101186;28;20199;-74
2022/06/22 01:48:23;;;;;;;10.52;9.63;;;;;;;22.35;61.24;94536.22;5097006;28;20204;-74
2022/06/22 01:50:53;;;;;;;12.20;9.52;;;;;;;22.31;61.13;94539.13;5097758;28;20192;-74
2022/06/22 01:53:24;;;;;;;10.65;9.65;;;;;;;22.29;61.21;94535.97;5099018;28;20513;-74
2022/06/22 01:55:53;;;;;;;12.70;10.00;;;;;;;22.26;61.30;94544.50;5086269;28;20216;-74
2022/06/22 01:58:42;;;;;;;10.35;9.35;;;;;;;22.22;61.95;94550.22;5103182;28;20207;-74
2022/06/22 02:01:16;;;;;;;11.70;9.95;;;;;;;22.19;62.08;94542.69;5103484;28;20200;-74
2022/06/22 02:03:46;;;;;;;12.25;10.15;;;;;;;22.16;61.75;94551.19;5102293;28;20190;-74
2022/06/22 02:09:06;;;;;;;9.80;8.90;;;;;;;22.04;61.71;94552.66;5102284;28;20177;-74
2022/06/22 02:11:36;;;;;;;13.70;9.95;;;;;;;21.98;61.68;94541.19;5099875;28;20196;-74
2022/06/22 02:14:09;;;;;;;10.75;9.65;;;;;;;21.92;61.75;94539.34;5100823;28;20216;-74
2022/06/22 02:16:38;;;;;;;10.25;9.15;;;;;;;21.87;61.68;94533.03;5100734;28;20192;-74
2022/06/22 02:19:12;;;;;;;10.65;9.68;;;;;;;21.82;62.05;94525.13;5098967;28;20196;-74
2022/06/22 02:21:41;;;;;;;10.65;9.60;;;;;;;21.79;61.90;94542.06;5099969;28;20292;-74
2022/06/22 02:24:12;;;;;;;10.38;9.52;;;;;;;21.72;62.12;94531.81;5099123;28;20197;-74
2022/06/22 02:26:42;;;;;;;10.00;9.18;;;;;;;21.68;62.47;94531.09;5099087;28;20244;-74
2022/06/22 02:29:11;;;;;;;11.07;9.52;;;;;;;21.67;62.57;94535.09;5100284;28;20195;-74
2022/06/22 02:31:38;;;;;;;10.60;9.65;;;;;;;21.63;63.31;94528.81;5100543;28;20275;-74
2022/06/22 02:34:05;;;;;;;10.70;9.52;;;;;;;21.57;63.54;94534.16;5099880;28;20577;-74
2022/06/22 02:36:34;;;;;;;12.80;9.90;;;;;;;21.55;63.49;94527.41;5099507;28;20257;-74
2022/06/22 02:39:04;;;;;;;11.13;10.18;;;;;;;21.51;63.57;94535.91;5099344;28;20200;-74
2022/06/22 02:44:31;;;;;;;11.18;10.15;;;;;;;21.50;63.33;94525.13;5099091;28;20200;-75
2022/06/22 02:46:59;;;;;;;12.25;10.10;;;;;;;21.48;63.47;94516.34;5101465;28;20196;-75
2022/06/22 02:49:30;;;;;;;11.43;10.32;;;;;;;21.54;63.18;94528.63;5098093;28;20242;-75
2022/06/22 02:51:57;;;;;;;10.50;9.50;;;;;;;21.57;63.13;94528.56;5098570;28;20197;-75
2022/06/22 02:54:29;;;;;;;11.18;10.27;;;;;;;21.59;63.26;94530.91;5099149;28;20208;-75
2022/06/22 02:57:02;;;;;;;11.20;10.15;;;;;;;21.57;63.36;94516.53;5098536;28;20193;-75
2022/06/22 02:59:31;;;;;;;10.38;9.38;;;;;;;21.56;63.67;94526.16;5099566;28;20203;-75
2022/06/22 03:01:58;;;;;;;10.63;9.63;;;;;;;21.57;63.27;94533.38;5099231;28;20192;-75
2022/06/22 03:04:25;;;;;;;11.60;9.30;;;;;;;21.54;63.63;94540.63;5099554;28;20188;-75
2022/06/22 03:06:54;;;;;;;12.32;10.57;;;;;;;21.52;63.77;94542.28;5097915;28;20191;-75
2022/06/22 03:09:21;;;;;;;12.45;11.15;;;;;;;21.46;64.12;94544.84;5098448;28;20541;-75
2022/06/22 03:11:51;;;;;;;17.35;15.43;;;;;;;21.41;64.71;94527.72;5098689;28;20215;-75
2022/06/22 03:14:21;;;;;;;18.98;16.48;;;;;;;21.39;64.64;94540.19;5098670;28;20643;-75
2022/06/22 03:16:54;;;;;;;18.00;16.20;;;;;;;21.42;64.13;94538.50;5100193;28;20192;-75
2022/06/22 03:19:26;;;;;;;15.95;14.32;;;;;;;21.38;64.08;94535.00;5099802;28;20207;-75
2022/06/22 03:21:52;;;;;;;16.02;14.50;;;;;;;21.38;63.90;94541.38;5099769;28;20180;-75
2022/06/22 03:24:26;;;;;;;17.52;15.75;;;;;;;21.45;64.04;94539.66;5099710;28;20203;-75
2022/06/22 03:27:00;;;;;;;14.98;13.55;;;;;;;21.46;63.88;94530.00;5100611;28;20220;-75
2022/06/22 03:29:30;;;;;;;18.70;15.98;;;;;;;21.43;64.17;94536.50;5099161;28;20193;-75
2022/06/22 03:32:01;;;;;;;15.50;13.75;;;;;;;21.45;63.82;94531.25;5098448;28;20621;-75
2022/06/22 03:34:30;;;;;;;14.18;12.68;;;;;;;21.45;63.82;94534.84;5098179;28;20212;-75
2022/06/22 03:37:01;;;;;;;13.98;12.57;;;;;;;21.46;63.72;94532.81;5099568;28;20200;-75
2022/06/22 03:39:32;;;;;;;13.93;12.27;;;;;;;21.46;63.88;94535.63;5098795;28;20200;-75
2022/06/22 03:42:01;;;;;;;14.23;12.70;;;;;;;21.45;64.01;94542.47;5099434;28;20180;-75
2022/06/22 03:44:32;;;;;;;12.80;11.60;;;;;;;21.44;63.78;94541.69;5098447;28;20197;-74
2022/06/22 03:47:07;;;;;;;12.80;11.57;;;;;;;21.39;64.46;94539.41;5097977;28;20211;-74
2022/06/22 03:49:37;;;;;;;13.85;12.15;;;;;;;21.38;64.41;94529.38;5100650;28;20188;-75
2022/06/22 03:52:08;;;;;;;15.02;12.48;;;;;;;21.36;64.29;94535.44;5101310;28;20271;-75
2022/06/22 03:54:39;;;;;;;12.82;11.27;;;;;;;21.38;64.32;94547.00;5098717;28;20224;-75
2022/06/22 03:57:09;;;;;;;13.75;12.05;;;;;;;21.42;64.47;94552.53;5099180;28;20192;-75
2022/06/22 03:59:36;;;;;;;13.25;11.95;;;;;;;21.38;64.61;94563.03;5099005;28;20624;-75
2022/06/22 04:02:05;;;;;;;13.18;11.68;;;;;;;21.33;65.47;94563.53;5098493;28;20199;-73
2022/06/22 04:04:32;;;;;;;14.25;11.77;;;;;;;21.30;65.46;94570.81;5099580;28;20615;-75
2022/06/22 04:06:59;;;;;;;11.57;10.48;;;;;;;21.28;65.59;94573.25;5100151;28;20196;-75
2022/06/22 04:09:28;;;;;;;12.60;11.13;;;;;;;21.26;65.92;94566.50;5099526;28;20200;-75
2022/06/22 04:11:58;;;;;;;14.07;12.02;;;;;;;21.23;66.18;94564.56;5100485;28;20258;-75
2022/06/22 04:14:31;;;;;;;13.55;12.15;;;;;;;21.21;66.38;94561.41;5099684;28;20196;-75
2022/06/22 04:17:01;;;;;;;14.02;12.60;;;;;;;21.22;66.34;94546.94;5100360;28;20193;-75
2022/06/22 04:19:31;;;;;;;15.43;13.38;;;;;;;21.24;66.53;94543.69;5098882;28;20201;-75
2022/06/22 04:22:01;;;;;;;14.65;12.00;;;;;;;21.25;66.74;94546.09;5099026;28;20209;-75
2022/06/22 04:24:30;;;;;;;12.60;11.30;;;;;;;21.26;66.80;94538.47;5082271;28;20204;-75
2022/06/22 04:27:14;;;;;;;12.38;11.27;;;;;;;21.27;66.92;94546.44;5099720;28;20236;-75
2022/06/22 04:29:45;;;;;;;12.48;11.25;;;;;;;21.30;66.93;94542.75;5099968;28;20202;-75
2022/06/22 04:32:17;;;;;;;14.13;12.57;;;;;;;21.31;67.08;94549.16;5098605;28;20196;-75
2022/06/22 04:34:47;;;;;;;14.40;12.90;;;;;;;21.34;66.89;94556.72;5100185;28;20208;-75
2022/06/22 04:37:22;;;;;;;15.32;12.68;;;;;;;21.35;67.03;94555.50;5099956;28;20187;-75
2022/06/22 04:39:52;;;;;;;15.00;12.18;;;;;;;21.38;66.90;94563.03;5099761;28;20172;-75
2022/06/22 04:42:19;;;;;;;14.40;12.90;;;;;;;21.40;67.29;94569.03;5099213;28;20188;-75
2022/06/22 04:44:49;;;;;;;13.43;12.13;;;;;;;21.46;67.20;94561.69;5098233;28;20195;-75
2022/06/22 04:47:19;;;;;;;13.43;12.13;;;;;;;21.50;67.46;94565.19;5099200;28;20207;-75
2022/06/22 04:49:52;;;;;;;19.02;13.98;;;;;;;21.55;67.52;94566.69;5098964;28;20195;-75
2022/06/22 04:52:22;;;;;;;13.75;12.20;;;;;;;21.59;67.61;94565.38;5100031;28;20180;-75
2022/06/22 04:54:51;;;;;;;14.18;12.68;;;;;;;21.67;67.89;94576.41;5098647;28;20185;-75
2022/06/22 04:57:21;;;;;;;12.85;11.52;;;;;;;21.69;67.54;94577.56;5098172;28;20197;-75
2022/06/22 04:59:49;;;;;;;13.05;11.85;;;;;;;21.74;67.31;94579.84;5096795;28;20556;-75
2022/06/22 05:02:18;;;;;;;13.85;11.38;;;;;;;21.78;67.56;94580.53;5099426;28;20197;-75
2022/06/22 05:04:50;;;;;;;12.95;11.63;;;;;;;21.83;67.56;94582.06;5097694;28;20201;-75
2022/06/22 05:07:29;;;;;;;11.98;10.88;;;;;;;21.85;67.58;94590.81;5098192;28;20196;-75
2022/06/22 05:10:00;;;;;;;11.98;10.88;;;;;;;21.87;67.24;94580.75;5098130;28;20192;-75
2022/06/22 05:12:29;;;;;;;11.77;10.77;;;;;;;21.92;67.36;94578.63;5098514;28;20192;-75
2022/06/22 05:14:58;;;;;;;12.52;10.80;;;;;;;21.94;67.06;94576.97;5098521;28;20201;-75
2022/06/22 05:17:28;;;;;;;12.02;10.88;;;;;;;21.96;67.18;94585.72;5098198;28;20196;-75
2022/06/22 05:20:00;;;;;;;12.23;11.02;;;;;;;21.99;67.20;94589.69;5098045;28;20204;-75
2022/06/22 05:22:27;;;;;;;12.50;11.20;;;;;;;22.01;67.52;94585.22;5098164;28;20203;-75
2022/06/22 05:24:59;;;;;;;12.57;11.27;;;;;;;22.03;66.99;94587.59;5097344;28;20219;-75
2022/06/22 05:27:29;;;;;;;11.63;10.48;;;;;;;22.06;66.77;94587.50;5097599;28;20273;-75
2022/06/22 05:29:59;;;;;;;12.68;11.43;;;;;;;22.10;66.92;94576.19;5098948;28;20221;-75
2022/06/22 05:32:30;;;;;;;12.98;11.43;;;;;;;22.10;66.40;94576.97;5101991;28;20185;-75
2022/06/22 05:34:59;;;;;;;12.75;11.48;;;;;;;22.09;66.70;94572.56;5100784;28;20192;-75
2022/06/22 05:37:30;;;;;;;14.13;12.85;;;;;;;22.11;66.60;94569.31;5100679;28;20196;-75
2022/06/22 05:39:57;;;;;;;13.68;12.30;;;;;;;22.12;67.02;94573.72;5102111;28;20185;-75
2022/06/22 05:42:25;;;;;;;13.68;12.32;;;;;;;22.13;66.77;94575.31;5102125;28;20188;-75
2022/06/22 05:44:52;;;;;;;13.07;11.60;;;;;;;22.15;67.05;94580.50;5100790;28;20200;-75
2022/06/22 05:47:25;;;;;;;14.20;12.70;;;;;;;22.17;66.55;94583.66;5101341;28;20200;-75
2022/06/22 05:49:56;;;;;;;13.50;12.05;;;;;;;22.20;66.86;94585.59;5101878;28;20239;-75
2022/06/22 05:52:31;;;;;;;14.10;12.73;;;;;;;22.22;66.92;94592.38;5101811;28;20254;-75
2022/06/22 05:55:00;;;;;;;14.13;12.70;;;;;;;22.25;67.06;94591.47;5100812;28;20196;-75
2022/06/22 05:57:35;;;;;;;12.73;11.38;;;;;;;22.27;67.06;94591.81;5102322;28;20698;-75
2022/06/22 06:00:07;;;;;;;12.88;11.65;;;;;;;22.30;66.53;94592.97;5103200;28;20198;-75
2022/06/22 06:02:38;;;;;;;14.02;12.52;;;;;;;22.32;66.43;94590.50;5103315;28;20196;-76
2022/06/22 06:05:11;;;;;;;12.50;11.20;;;;;;;22.35;65.91;94595.22;5101889;28;20196;-75
2022/06/22 06:07:42;;;;;;;13.05;11.85;;;;;;;22.35;66.07;94595.22;5103145;28;20195;-75
2022/06/22 06:10:16;;;;;;;13.70;12.35;;;;;;;22.35;66.60;94589.63;5102222;28;20201;-75
2022/06/22 06:12:46;;;;;;;13.48;11.90;;;;;;;22.39;66.52;94586.72;5102422;28;20188;-75
2022/06/22 06:15:15;;;;;;;12.98;11.75;;;;;;;22.40;67.12;94586.25;5101617;28;20196;-75
2022/06/22 06:17:44;;;;;;;12.65;11.52;;;;;;;22.43;66.84;94596.63;5101363;28;20200;-75
2022/06/22 06:20:18;;;;;;;13.82;11.93;;;;;;;22.45;66.72;94594.16;5103295;28;20195;-75
2022/06/22 06:22:48;;;;;;;13.10;11.82;;;;;;;22.49;66.68;94586.44;5102545;28;20619;-75
2022/06/22 06:28:10;;;;;;;12.90;11.70;;;;;;;22.55;67.03;94593.09;5103145;28;20545;-75
2022/06/22 06:30:43;;;;;;;13.52;12.13;;;;;;;22.58;67.18;94591.41;5101122;28;20203;-75
2022/06/22 06:33:13;;;;;;;12.82;11.55;;;;;;;22.59;66.98;94593.00;5102180;28;20574;-75
2022/06/22 06:35:45;;;;;;;12.63;11.55;;;;;;;22.59;67.00;94588.16;5101545;28;20208;-75
2022/06/22 06:38:21;;;;;;;12.65;11.48;;;;;;;22.64;67.87;94597.28;5102228;28;20199;-75
2022/06/22 06:41:04;;;;;;;14.48;11.68;;;;;;;22.65;67.76;94585.59;5101513;28;20203;-76
2022/06/22 06:43:37;;;;;;;12.20;11.10;;;;;;;22.68;68.06;94581.91;5102169;28;20203;-75
2022/06/22 06:46:10;;;;;;;14.35;12.23;;;;;;;22.72;67.83;94584.63;5102717;28;20192;-75
2022/06/22 06:48:37;;;;;;;13.40;12.18;;;;;;;22.73;67.91;94587.00;5101796;28;20208;-75
2022/06/22 06:51:05;;;;;;;12.77;11.57;;;;;;;22.76;68.26;94585.31;5102014;28;20177;-75
2022/06/22 06:53:39;;;;;;;12.27;11.18;;;;;;;22.78;68.28;94583.63;5101048;28;20200;-75
2022/06/22 06:56:13;;;;;;;11.63;10.73;;;;;;;22.79;67.93;94571.16;5101212;28;20204;-75
2022/06/22 06:58:46;;;;;;;12.57;11.32;;;;;;;22.84;68.21;94581.09;5101318;28;20211;-75
2022/06/22 07:01:18;;;;;;;12.25;11.15;;;;;;;22.87;68.37;94570.94;5099815;28;20647;-75
2022/06/22 07:03:46;;;;;;;13.00;11.77;;;;;;;22.91;68.63;94574.44;5101517;28;20524;-75
2022/06/22 07:06:12;;;;;;;12.00;10.90;;;;;;;22.96;68.62;94571.91;5100152;28;20196;-75
2022/06/22 07:08:45;;;;;;;12.23;10.70;;;;;;;23.00;69.09;94560.56;5099354;28;20200;-75
2022/06/22 07:11:15;;;;;;;12.48;11.27;;;;;;;23.03;68.89;94559.69;5100098;28;20188;-75
2022/06/22 07:13:47;;;;;;;13.65;11.88;;;;;;;23.05;68.96;94566.41;5102616;28;20198;-75
2022/06/22 07:16:18;;;;;;;13.63;11.65;;;;;;;23.11;68.28;94571.50;5101166;28;20224;-75
2022/06/22 07:18:48;;;;;;;12.63;11.27;;;;;;;23.14;68.61;94559.38;5099577;28;20196;-75
2022/06/22 07:21:19;;;;;;;13.10;11.85;;;;;;;23.16;68.94;94554.84;5101158;28;20197;-75
2022/06/22 07:23:52;;;;;;;13.00;11.73;;;;;;;23.18;68.51;94568.50;5102657;28;20185;-75
2022/06/22 07:26:27;;;;;;;12.82;11.73;;;;;;;23.20;68.14;94566.81;5101394;28;20200;-75
2022/06/22 07:28:58;;;;;;;14.07;12.68;;;;;;;23.26;68.32;94555.78;5101032;28;20200;-75
2022/06/22 07:31:28;;;;;;;18.70;15.73;;;;;;;23.30;69.47;94570.53;5084541;28;20200;-75
2022/06/22 07:34:00;;;;;;;19.98;17.98;;;;;;;23.38;66.37;94560.63;5101948;28;20200;-75
2022/06/22 07:36:31;;;;;;;21.10;18.83;;;;;;;23.44;65.79;94564.47;5101198;28;20277;-76
2022/06/22 07:39:03;;;;;;;20.52;18.38;;;;;;;23.48;65.91;94553.88;5101281;28;20196;-75
2022/06/22 07:41:30;;;;;;;22.85;20.00;;;;;;;23.53;65.36;94553.34;5099561;28;20199;-75
2022/06/22 07:43:58;;;;;;;22.65;20.25;;;;;;;23.60;64.41;94554.34;5100464;28;20192;-75
2022/06/22 07:46:29;;;;;;;18.63;16.45;;;;;;;23.64;64.65;94557.81;5099612;28;20540;-75
2022/06/22 07:49:00;;;;;;;19.77;17.88;;;;;;;23.70;65.08;94556.06;5099757;28;20196;-75
2022/06/22 07:51:30;;;;;;;20.73;18.70;;;;;;;23.75;64.91;94558.34;5099957;28;20192;-75
2022/06/22 07:54:03;;;;;;;20.23;18.13;;;;;;;23.80;65.45;94556.97;5099358;28;20204;-76
2022/06/22 07:56:38;;;;;;;20.85;18.15;;;;;;;23.86;64.89;94564.41;5100196;28;20212;-75
2022/06/22 07:59:09;;;;;;;21.02;18.77;;;;;;;23.89;64.95;94557.84;5082630;28;20200;-75
2022/06/22 08:01:39;;;;;;;22.73;20.15;;;;;;;23.94;63.87;94557.28;5099675;28;20200;-75
2022/06/22 08:04:10;;;;;;;21.88;18.80;;;;;;;24.02;63.91;94555.03;5101937;28;20199;-75
2022/06/22 08:06:41;;;;;;;20.85;18.70;;;;;;;24.05;63.95;94568.22;5101763;28;20207;-75
2022/06/22 08:09:15;;;;;;;19.55;17.75;;;;;;;24.08;63.93;94572.16;5100525;28;20215;-75
2022/06/22 08:11:44;;;;;;;18.50;16.70;;;;;;;24.09;64.74;94570.91;5100118;28;20199;-75
2022/06/22 08:14:14;;;;;;;20.25;18.05;;;;;;;24.10;64.99;94566.84;5100094;28;20200;-76
2022/06/22 08:16:44;;;;;;;20.63;18.50;;;;;;;24.12;65.12;94567.97;5099280;28;20568;-75
2022/06/22 08:19:11;;;;;;;18.85;17.05;;;;;;;24.15;64.45;94566.28;5099022;28;20196;-75
2022/06/22 08:21:42;;;;;;;20.73;18.58;;;;;;;24.17;63.33;94580.69;5100214;28;20194;-75
2022/06/22 08:24:11;;;;;;;17.33;15.52;;;;;;;24.20;63.71;94568.53;5099102;28;20322;-75
2022/06/22 08:26:38;;;;;;;18.33;16.00;;;;;;;24.27;64.91;94569.06;5100467;28;20251;-75
2022/06/22 08:29:06;;;;;;;17.77;15.38;;;;;;;24.31;66.02;94562.53;5099609;28;20204;-75
2022/06/22 08:31:38;;;;;;;16.17;14.57;;;;;;;24.35;63.92;94566.78;5100608;28;20188;-75
2022/06/22 08:34:10;;;;;;;17.00;15.05;;;;;;;24.37;64.34;94558.69;5100451;28;20185;-75
2022/06/22 08:36:40;;;;;;;17.33;15.57;;;;;;;24.42;63.96;94557.34;5099786;28;20205;-75
2022/06/22 08:39:14;;;;;;;19.08;17.00;;;;;;;24.50;64.71;94564.31;5100781;28;20184;-75
2022/06/22 08:41:50;;;;;;;16.80;15.00;;;;;;;24.54;62.69;94564.97;5100518;28;20575;-75
2022/06/22 08:44:36;;;;;;;17.40;15.70;;;;;;;24.57;61.63;94561.22;5098113;28;20275;-75
2022/06/22 08:47:38;;;;;;;14.57;13.07;;;;;;;24.60;60.28;94573.63;5099817;28;20624;-75
2022/06/22 08:50:21;;;;;;;15.30;13.85;;;;;;;24.63;60.77;94553.78;5092380;28;20237;-75
2022/06/22 08:53:00;;;;;;;15.18;13.68;;;;;;;24.70;61.09;94567.63;5099189;28;20196;-75
2022/06/22 08:55:48;;;;;;;14.80;13.40;;;;;;;24.73;60.10;94563.91;5099144;28;20196;-76
2022/06/22 08:58:31;;;;;;;14.45;13.07;;;;;;;24.78;60.21;94548.41;5099239;28;20540;-75
2022/06/22 09:01:01;;;;;;;14.20;12.38;;;;;;;24.82;59.60;94554.72;5099013;28;20203;-75
2022/06/22 09:03:58;;;;;;;17.30;13.23;;;;;;;24.90;60.53;94553.19;5099352;28;20193;-75
2022/06/22 09:06:49;;;;;;;15.23;13.40;;;;;;;24.98;59.37;94546.06;5098792;28;20237;-75
2022/06/22 09:09:42;;;;;;;16.85;13.65;;;;;;;25.06;59.37;94538.13;5098932;28;20200;-75
2022/06/22 09:12:20;;;;;;;16.88;12.88;;;;;;;25.11;58.42;94539.59;5098792;28;20245;-75
2022/06/22 09:15:07;;;;;;;15.23;13.00;;;;;;;25.18;58.80;94542.13;5099173;28;20192;-76
2022/06/22 09:18:05;;;;;;;13.82;12.38;;;;;;;25.23;57.41;94543.56;5099078;28;20216;-75
2022/06/22 09:20:41;;;;;;;13.63;12.30;;;;;;;25.29;57.37;94548.16;5028292;28;20208;-75
2022/06/22 09:23:19;;;;;;;14.02;12.45;;;;;;;25.37;55.97;94537.38;5099078;28;20530;-76
2022/06/22 09:25:48;;;;;;;13.40;12.23;;;;;;;25.41;55.79;94535.97;5099027;28;20218;-75
2022/06/22 09:28:22;;;;;;;16.13;13.27;;;;;;;25.44;55.96;94526.59;5099184;28;20228;-75
2022/06/22 09:31:06;;;;;;;13.65;12.27;;;;;;;25.50;55.21;94521.16;5099345;28;20521;-75
2022/06/22 09:33:53;;;;;;;12.98;11.23;;;;;;;25.53;55.83;94508.13;5099376;28;20181;-75
2022/06/22 09:36:39;;;;;;;13.43;11.43;;;;;;;25.60;56.91;94502.19;5099417;28;20204;-75
2022/06/22 09:39:20;;;;;;;13.05;11.65;;;;;;;25.72;55.46;94503.34;5098573;28;20200;-75
2022/06/22 09:41:57;;;;;;;14.38;10.98;;;;;;;25.73;54.60;94497.22;5098958;28;20197;-75
2022/06/22 09:44:58;;;;;;;12.32;10.95;;;;;;;25.63;54.30;94507.69;5098539;28;20203;-75
2022/06/22 09:47:50;;;;;;;13.32;10.48;;;;;;;25.55;54.80;94517.72;5083866;28;20199;-75
2022/06/22 09:50:43;;;;;;;11.60;10.35;;;;;;;25.57;54.80;94506.75;5099491;28;20176;-75
2022/06/22 09:53:43;;;;;;;10.93;9.93;;;;;;;25.53;55.50;94513.75;5095163;28;20233;-75
2022/06/22 09:56:22;;;;;;;12.38;10.45;;;;;;;25.51;55.87;94513.47;5099644;28;20195;-75
2022/06/22 09:59:26;;;;;;;16.58;11.23;;;;;;;25.63;56.74;94521.03;5100263;28;20519;-75
2022/06/22 10:02:04;;;;;;;14.18;11.52;;;;;;;25.79;56.86;94517.22;5091025;28;20297;-75
2022/06/22 10:05:00;;;;;;;11.50;10.38;;;;;;;25.93;56.94;94527.94;5099302;28;20192;-75
2022/06/22 10:07:37;;;;;;;12.23;11.05;;;;;;;26.01;54.94;94534.84;5082729;28;20219;-75
2022/06/22 10:10:13;;;;;;;11.55;10.45;;;;;;;26.02;55.30;94544.91;5099688;28;20186;-75
2022/06/22 10:12:58;;;;;;;12.15;10.95;;;;;;;26.00;55.31;94536.13;5098611;28;20193;-75
2022/06/22 10:15:40;;;;;;;12.25;10.98;;;;;;;25.93;55.08;94537.19;5098594;28;20593;-75
2022/06/22 10:18:31;;;;;;;12.35;11.10;;;;;;;25.86;56.37;94540.31;5103070;28;20219;-76
2022/06/22 10:21:04;;;;;;;12.23;10.95;;;;;;;25.90;58.41;94540.94;5101336;28;20199;-76
2022/06/22 10:23:41;;;;;;;11.95;10.75;;;;;;;25.92;56.96;94546.13;5101598;28;20196;-76
2022/06/22 10:26:18;;;;;;;11.50;10.50;;;;;;;25.87;56.49;94541.88;5102402;28;20227;-76
2022/06/22 10:29:13;;;;;;;12.52;11.18;;;;;;;25.80;56.55;94547.81;5102026;28;20215;-76
2022/06/22 10:31:50;;;;;;;11.88;10.63;;;;;;;25.71;56.32;94553.41;5102171;28;20201;-76
2022/06/22 10:34:26;;;;;;;12.05;10.85;;;;;;;25.64;56.62;94543.19;5100945;28;20613;-76
2022/06/22 10:37:05;;;;;;;13.32;11.45;;;;;;;25.59;56.85;94540.16;5101985;28;20226;-76
2022/06/22 10:39:45;;;;;;;12.10;11.05;;;;;;;25.54;57.12;94541.56;5100794;28;20200;-76
2022/06/22 10:45:29;;;;;;;12.32;10.77;;;;;;;25.86;57.60;94545.97;5101033;28;20179;-75
2022/06/22 10:48:18;;;;;;;13.52;10.80;;;;;;;26.02;58.36;94536.44;5101786;28;20201;-75
2022/06/22 10:50:55;;;;;;;12.32;11.05;;;;;;;26.18;57.73;94532.53;5101366;28;20181;-75
2022/06/22 10:53:43;;;;;;;11.50;10.50;;;;;;;26.34;56.49;94531.47;5100916;28;20195;-75
2022/06/22 10:56:19;;;;;;;11.88;10.52;;;;;;;26.45;57.78;94536.69;5102053;28;20207;-75
2022/06/22 10:58:57;;;;;;;12.63;11.32;;;;;;;26.55;56.13;94532.63;5101688;28;20237;-75
2022/06/22 11:01:39;;;;;;;14.65;11.35;;;;;;;26.67;56.91;94536.56;5101662;28;20203;-75
2022/06/22 11:04:44;;;;;;;13.55;12.20;;;;;;;26.78;56.91;94532.00;5102317;28;20189;-76
2022/06/22 11:07:34;;;;;;;14.18;11.52;;;;;;;26.82;56.87;94537.50;5101450;28;20196;-75
2022/06/22 11:10:17;;;;;;;14.13;12.75;;;;;;;26.94;56.18;94532.94;5098423;28;20204;-75
2022/06/22 11:13:14;;;;;;;13.27;11.90;;;;;;;27.00;56.53;94528.22;5100967;28;20193;-75
2022/06/22 11:15:59;;;;;;;14.50;12.23;;;;;;;27.04;55.34;94529.63;5100379;28;20231;-75
2022/06/22 11:18:47;;;;;;;12.63;11.43;;;;;;;27.01;54.42;94543.94;5101188;28;20235;-75
2022/06/22 11:21:22;;;;;;;12.18;10.85;;;;;;;26.83;55.49;94554.00;5102661;28;20621;-75
2022/06/22 11:24:17;;;;;;;12.07;10.55;;;;;;;26.61;55.97;94551.31;5102283;28;20627;-75
2022/06/22 11:33:00;;;;;;;12.15;11.05;;;;;;;26.10;56.56;94539.75;5100191;28;20585;-75
2022/06/22 11:35:38;;;;;;;11.60;10.60;;;;;;;25.96;56.03;94545.97;5101375;28;20208;-75
2022/06/22 11:38:25;;;;;;;13.00;11.40;;;;;;;25.86;56.68;94545.19;5101385;28;20219;-75
2022/06/22 11:41:03;;;;;;;13.43;11.98;;;;;;;25.76;57.31;94549.19;5101282;28;20188;-75
2022/06/22 11:43:49;;;;;;;13.90;12.45;;;;;;;25.68;57.44;94545.84;5100634;28;20203;-75
2022/06/22 11:46:19;;;;;;;13.73;12.27;;;;;;;25.61;57.56;94537.66;5102083;28;20190;-75
2022/06/22 11:49:01;;;;;;;13.68;12.18;;;;;;;25.61;58.51;94540.50;5100765;28;20189;-75
2022/06/22 11:51:39;;;;;;;14.25;12.93;;;;;;;25.63;58.65;94530.28;5101451;28;20329;-75
2022/06/22 11:54:26;;;;;;;17.17;13.25;;;;;;;25.70;58.51;94527.19;5101420;28;20207;-75
2022/06/22 11:57:19;;;;;;;14.13;12.73;;;;;;;25.75;57.75;94537.09;5101360;28;20189;-75
2022/06/22 12:00:06;;;;;;;13.98;12.55;;;;;;;25.75;58.17;94531.44;5101473;28;20199;-75
2022/06/22 12:03:00;;;;;;;14.95;13.45;;;;;;;25.83;58.30;94532.75;5099635;28;20203;-75
2022/06/22 12:06:03;;;;;;;14.40;13.00;;;;;;;25.89;57.85;94530.09;5096335;28;20616;-75
2022/06/22 12:08:52;;;;;;;15.73;12.98;;;;;;;26.06;58.93;94539.88;5100566;28;20219;-76
2022/06/22 12:11:26;;;;;;;13.75;12.40;;;;;;;26.27;59.42;94523.28;5098904;28;20200;-75